Fresh Meadows, NY (11366)

12:49 PM EST on March 01, 2017 (GMT -0500)
Flushing | | Change Station
Active Advisory: Wind Advisory

Elev 98 ft 40.75 °N, 73.78 °W | Updated 37 seconds ago

Overcast
Overcast
55.0 °F
Feels Like 55.0 °F
N
3.4
Wind Variable Wind from SE
Gusts 4.9 mph

Today
High -- | Low -- °F
--% Chance of Precip.
Yesterday
High -- | Low -- °F
Precip. -- in
Pressure 29.61 in
Visibility 7.0 miles
Clouds Scattered Clouds 1700 ft
Mostly Cloudy 2300 ft
Overcast 3300 ft
Dew Point 53 °F
Humidity 93%
Rainfall 0.05 in
Snow Depth Not available.
6:28 AM 5:46 PM
Waxing Crescent, 12% visible
SPECI KLGA 011713Z 15007KT 7SM SCT017 BKN023 OVC033 15/13 A2961 RMK AO2 RAE11 P0001 T01500128 $
Pressure 29.61 in
Visibility 7.0 miles
Clouds Scattered Clouds 1700 ft
Mostly Cloudy 2300 ft
Overcast 3300 ft
Dew Point 53 °F
Humidity 93%
Rainfall 0.05 in
Snow Depth Not available.
6:28 AM 5:46 PM
Waxing Crescent, 12% visible
SPECI KLGA 011713Z 15007KT 7SM SCT017 BKN023 OVC033 15/13 A2961 RMK AO2 RAE11 P0001 T01500128 $

Get Your Daily Forecast Email!

Thanks for signing up!

Be on the lookout for a verification email in your inbox.

You'll start receiving the daily forecast at 8 AM.

×

10-Day Weather Forecast

Almanac

Astronomy

Mar. 01, 2017 Rise Set
Actual Time
Civil Twilight
Nautical Twilight
Astronomical Twilight
Moon
Length of Visible Light
Length of Day
Tomorrow will be .
, % of the Moon is Illuminated

Today's Extremes

State Highs State Lows

Community

WunderPhotos

Upload Photos

1,962,540 photos uploaded!

WunderBlog® & News

Nearby

Air Quality

  Air Quality AQ Index Pollutant
Not available.

Snow Depth

Station Depth Elevation

Earthquake Activity

City Distance Mag. Time & Date
Minimum magnitude displayed is 2.5.

Coastal Water Temperatures

Place Temperature

Stations

Nearby Weather Stations

Station Location Temp. Windchill Dew Point Humidity Wind Precip. Elev Updated Type
                   

Watches & Warnings

Wind Advisory
Issued: 12:05 PM EST Mar. 1, 2017 – National Weather Service

... Wind Advisory remains in effect from 1 am to 6 PM EST
Thursday...

* winds... west 15 to 25 mph with gusts 45 to 50 mph.

* Timing... late tonight and Thursday, with the strongest winds
most likely during Thursday morning.

* Impacts... gusty winds will blow around unsecured objects. Tree
limbs could be blown down and a few power outages may result.
Difficult.

Precautionary/preparedness actions...

A Wind Advisory is issued when sustained winds of 31 to 39 mph...
or gusts of 46 to 57 mph... are expected or occurring. Winds this
strong can make driving difficult... especially for high profile
vehicles. Use extra caution.